sensor_id;sensor_type;location;lat;lon;timestamp;pressure;altitude;pressure_sealevel;temperature;humidity
63622;BME280;49770;47.544;19.074;2022-07-29T04:10:47;100345.81;;;20.80;70.48
63622;BME280;49770;47.544;19.074;2022-07-29T04:13:50;100345.81;;;20.80;70.48
63622;BME280;49770;47.544;19.074;2022-07-29T04:16:53;100347.09;;;20.36;71.86
63622;BME280;49770;47.544;19.074;2022-07-29T04:19:56;100352.78;;;20.43;71.37
63622;BME280;49770;47.544;19.074;2022-07-29T04:22:58;100353.78;;;20.52;71.25
63622;BME280;49770;47.544;19.074;2022-07-29T04:26:01;100347.53;;;20.61;70.66
63622;BME280;49770;47.544;19.074;2022-07-29T04:29:04;100355.03;;;20.67;69.67
63622;BME280;49770;47.544;19.074;2022-07-29T04:32:06;100351.63;;;20.75;69.45
63622;BME280;49770;47.544;19.074;2022-07-29T04:35:09;100354.75;;;20.90;68.32
63622;BME280;49770;47.544;19.074;2022-07-29T04:38:12;100353.91;;;20.99;68.00
63622;BME280;49770;47.544;19.074;2022-07-29T04:41:18;100344.94;;;21.09;67.41
63622;BME280;49770;47.544;19.074;2022-07-29T04:44:37;100348.03;;;21.14;67.49
63622;BME280;49770;47.544;19.074;2022-07-29T04:47:41;100339.06;;;21.33;66.63
63622;BME280;49770;47.544;19.074;2022-07-29T04:50:44;100342.25;;;21.47;65.58
63622;BME280;49770;47.544;19.074;2022-07-29T04:53:46;100349.00;;;21.61;65.78
63622;BME280;49770;47.544;19.074;2022-07-29T04:56:49;100354.50;;;21.69;67.06
63622;BME280;49770;47.544;19.074;2022-07-29T04:59:52;100362.28;;;21.82;66.79
63622;BME280;49770;47.544;19.074;2022-07-29T05:02:54;100354.28;;;21.90;66.80
63622;BME280;49770;47.544;19.074;2022-07-29T05:06:00;100356.38;;;22.15;65.89
63622;BME280;49770;47.544;19.074;2022-07-29T05:09:02;100358.56;;;22.11;65.43
63622;BME280;49770;47.544;19.074;2022-07-29T05:12:06;100357.56;;;22.30;65.31
63622;BME280;49770;47.544;19.074;2022-07-29T05:15:09;100349.94;;;22.44;64.70
63622;BME280;49770;47.544;19.074;2022-07-29T05:18:12;100355.81;;;22.57;64.66
63622;BME280;49770;47.544;19.074;2022-07-29T05:21:15;100357.31;;;22.78;63.95
63622;BME280;49770;47.544;19.074;2022-07-29T05:24:17;100358.34;;;22.77;63.81
63622;BME280;49770;47.544;19.074;2022-07-29T05:27:21;100346.00;;;23.01;64.85
63622;BME280;49770;47.544;19.074;2022-07-29T05:30:24;100357.56;;;23.11;62.10
63622;BME280;49770;47.544;19.074;2022-07-29T05:33:26;100351.88;;;23.49;60.75
63622;BME280;49770;47.544;19.074;2022-07-29T05:36:38;100350.16;;;23.83;61.33
63622;BME280;49770;47.544;19.074;2022-07-29T05:39:40;100348.09;;;25.03;57.40
63622;BME280;49770;47.544;19.074;2022-07-29T05:42:50;100360.19;;;26.52;52.10
63622;BME280;49770;47.544;19.074;2022-07-29T05:45:53;100363.53;;;27.01;49.94
63622;BME280;49770;47.544;19.074;2022-07-29T05:48:56;100358.03;;;27.24;49.00
63622;BME280;49770;47.544;19.074;2022-07-29T05:51:58;100359.88;;;27.54;47.88
63622;BME280;49770;47.544;19.074;2022-07-29T05:55:02;100354.66;;;27.52;46.58
63622;BME280;49770;47.544;19.074;2022-07-29T05:58:06;100357.56;;;27.66;46.27
63622;BME280;49770;47.544;19.074;2022-07-29T06:01:09;100356.34;;;27.53;46.97
63622;BME280;49770;47.544;19.074;2022-07-29T06:04:12;100360.66;;;27.02;47.97
63622;BME280;49770;47.544;19.074;2022-07-29T06:07:15;100355.13;;;27.26;48.55
63622;BME280;49770;47.544;19.074;2022-07-29T06:10:18;100360.47;;;27.64;46.66
63622;BME280;49770;47.544;19.074;2022-07-29T06:40:29;100369.41;;;32.75;34.01
63622;BME280;49770;47.544;19.074;2022-07-29T06:43:51;100371.84;;;31.94;34.49
63622;BME280;49770;47.544;19.074;2022-07-29T06:46:58;100375.44;;;31.01;35.66
63622;BME280;49770;47.544;19.074;2022-07-29T06:50:26;100368.53;;;29.96;36.71
63622;BME280;49770;47.544;19.074;2022-07-29T07:16:15;100361.84;;;32.06;33.46
63622;BME280;49770;47.544;19.074;2022-07-29T08:23:51;100335.84;;;33.73;30.77
63622;BME280;49770;47.544;19.074;2022-07-29T08:42:11;100340.34;;;35.07;27.84
63622;BME280;49770;47.544;19.074;2022-07-29T08:45:14;100328.53;;;35.89;27.90
63622;BME280;49770;47.544;19.074;2022-07-29T08:48:20;100335.84;;;34.35;27.96
63622;BME280;49770;47.544;19.074;2022-07-29T08:51:24;100339.75;;;34.93;27.81
63622;BME280;49770;47.544;19.074;2022-07-29T08:54:28;100327.28;;;34.55;28.91
63622;BME280;49770;47.544;19.074;2022-07-29T08:57:34;100323.56;;;34.97;27.89
63622;BME280;49770;47.544;19.074;2022-07-29T09:00:42;100325.94;;;35.29;27.28
63622;BME280;49770;47.544;19.074;2022-07-29T09:03:47;100322.00;;;35.37;26.89
63622;BME280;49770;47.544;19.074;2022-07-29T09:06:54;100316.50;;;36.24;25.55
63622;BME280;49770;47.544;19.074;2022-07-29T09:10:00;100314.56;;;35.79;26.29
63622;BME280;49770;47.544;19.074;2022-07-29T09:13:03;100313.16;;;36.22;25.16
63622;BME280;49770;47.544;19.074;2022-07-29T09:16:06;100318.47;;;37.15;25.21
63622;BME280;49770;47.544;19.074;2022-07-29T09:19:29;100308.91;;;37.05;24.48
63622;BME280;49770;47.544;19.074;2022-07-29T09:22:44;100307.81;;;37.24;23.97
63622;BME280;49770;47.544;19.074;2022-07-29T09:25:51;100307.47;;;37.20;24.50
63622;BME280;49770;47.544;19.074;2022-07-29T09:28:54;100306.47;;;37.26;24.31
63622;BME280;49770;47.544;19.074;2022-07-29T09:31:56;100308.09;;;37.99;23.95
63622;BME280;49770;47.544;19.074;2022-07-29T09:35:19;100292.62;;;38.36;22.69
63622;BME280;49770;47.544;19.074;2022-07-29T09:38:22;100295.16;;;38.38;22.59
63622;BME280;49770;47.544;19.074;2022-07-29T09:41:26;100296.66;;;38.51;22.27
63622;BME280;49770;47.544;19.074;2022-07-29T09:44:48;100286.44;;;37.19;24.14
63622;BME280;49770;47.544;19.074;2022-07-29T09:47:51;100284.03;;;38.00;23.11
63622;BME280;49770;47.544;19.074;2022-07-29T09:50:54;100286.59;;;37.79;22.20
63622;BME280;49770;47.544;19.074;2022-07-29T09:53:57;100286.59;;;37.79;23.16
63622;BME280;49770;47.544;19.074;2022-07-29T09:57:00;100280.03;;;39.63;21.11
63622;BME280;49770;47.544;19.074;2022-07-29T10:03:14;100269.38;;;41.11;18.81
63622;BME280;49770;47.544;19.074;2022-07-29T10:06:18;100274.44;;;40.98;19.56
63622;BME280;49770;47.544;19.074;2022-07-29T10:42:45;100239.00;;;40.07;18.62
63622;BME280;49770;47.544;19.074;2022-07-29T10:45:55;100232.06;;;41.22;18.73
63622;BME280;49770;47.544;19.074;2022-07-29T10:49:13;100240.34;;;40.61;17.85
63622;BME280;49770;47.544;19.074;2022-07-29T10:52:17;100238.06;;;40.74;18.63
63622;BME280;49770;47.544;19.074;2022-07-29T10:58:33;100228.88;;;37.93;20.53
63622;BME280;49770;47.544;19.074;2022-07-29T11:01:36;100226.03;;;36.66;22.41
63622;BME280;49770;47.544;19.074;2022-07-29T11:32:24;100195.38;;;35.06;24.59
63622;BME280;49770;47.544;19.074;2022-07-29T11:35:31;100198.47;;;35.51;24.06
63622;BME280;49770;47.544;19.074;2022-07-29T11:38:41;100185.59;;;35.57;22.99
63622;BME280;49770;47.544;19.074;2022-07-29T11:41:44;100183.28;;;34.95;24.17
63622;BME280;49770;47.544;19.074;2022-07-29T11:45:17;100190.53;;;35.26;23.81
63622;BME280;49770;47.544;19.074;2022-07-29T11:48:42;100183.47;;;35.76;23.32
63622;BME280;49770;47.544;19.074;2022-07-29T11:51:51;100177.53;;;35.84;23.42
63622;BME280;49770;47.544;19.074;2022-07-29T11:54:57;100172.66;;;36.43;22.95
63622;BME280;49770;47.544;19.074;2022-07-29T11:58:11;100180.81;;;36.15;22.70
63622;BME280;49770;47.544;19.074;2022-07-29T12:01:16;100172.78;;;36.31;22.18
63622;BME280;49770;47.544;19.074;2022-07-29T12:04:19;100164.50;;;36.31;22.24
63622;BME280;49770;47.544;19.074;2022-07-29T12:07:33;100166.47;;;35.50;23.36
63622;BME280;49770;47.544;19.074;2022-07-29T12:10:37;100167.94;;;35.41;23.48
63622;BME280;49770;47.544;19.074;2022-07-29T12:13:40;100168.59;;;35.60;23.52
63622;BME280;49770;47.544;19.074;2022-07-29T12:16:43;100159.91;;;36.03;22.85
63622;BME280;49770;47.544;19.074;2022-07-29T12:19:46;100155.13;;;35.98;22.62
63622;BME280;49770;47.544;19.074;2022-07-29T12:30:06;100139.31;;;35.59;22.91
63622;BME280;49770;47.544;19.074;2022-07-29T12:36:55;100136.91;;;35.04;23.88
63622;BME280;49770;47.544;19.074;2022-07-29T12:39:58;100126.25;;;35.54;23.93
63622;BME280;49770;47.544;19.074;2022-07-29T12:43:09;100117.16;;;35.88;23.99
63622;BME280;49770;47.544;19.074;2022-07-29T12:50:11;100107.31;;;35.12;24.68
63622;BME280;49770;47.544;19.074;2022-07-29T12:53:15;100101.47;;;34.67;24.73
63622;BME280;49770;47.544;19.074;2022-07-29T12:56:19;100108.53;;;35.04;23.67
63622;BME280;49770;47.544;19.074;2022-07-29T12:59:42;100099.31;;;34.98;23.92
63622;BME280;49770;47.544;19.074;2022-07-29T13:02:55;100116.25;;;34.25;24.96
63622;BME280;49770;47.544;19.074;2022-07-29T13:05:58;100102.13;;;34.09;25.09
63622;BME280;49770;47.544;19.074;2022-07-29T13:12:13;100092.38;;;34.54;24.56
63622;BME280;49770;47.544;19.074;2022-07-29T13:15:16;100083.81;;;34.39;23.70
63622;BME280;49770;47.544;19.074;2022-07-29T13:18:27;100081.50;;;34.48;24.31
63622;BME280;49770;47.544;19.074;2022-07-29T13:21:30;100085.56;;;34.57;23.47
63622;BME280;49770;47.544;19.074;2022-07-29T13:24:49;100088.16;;;35.05;23.40
63622;BME280;49770;47.544;19.074;2022-07-29T13:27:52;100078.38;;;34.44;24.05
63622;BME280;49770;47.544;19.074;2022-07-29T13:30:56;100072.59;;;34.99;23.37
63622;BME280;49770;47.544;19.074;2022-07-29T13:33:59;100078.13;;;34.99;22.64
63622;BME280;49770;47.544;19.074;2022-07-29T13:37:02;100073.69;;;34.98;23.54
63622;BME280;49770;47.544;19.074;2022-07-29T13:40:07;100072.28;;;34.95;22.94
63622;BME280;49770;47.544;19.074;2022-07-29T13:43:11;100063.16;;;34.65;22.62
63622;BME280;49770;47.544;19.074;2022-07-29T13:46:14;100057.37;;;34.26;23.58
63622;BME280;49770;47.544;19.074;2022-07-29T13:49:17;100063.22;;;34.41;23.01
63622;BME280;49770;47.544;19.074;2022-07-29T13:52:20;100053.75;;;34.37;23.60
63622;BME280;49770;47.544;19.074;2022-07-29T13:55:23;100052.78;;;34.32;23.83
63622;BME280;49770;47.544;19.074;2022-07-29T13:58:26;100059.81;;;34.10;23.63
63622;BME280;49770;47.544;19.074;2022-07-29T14:01:29;100047.94;;;33.98;23.78
63622;BME280;49770;47.544;19.074;2022-07-29T14:04:33;100042.75;;;34.25;23.83
63622;BME280;49770;47.544;19.074;2022-07-29T14:07:37;100036.81;;;34.17;23.75
63622;BME280;49770;47.544;19.074;2022-07-29T14:10:41;100040.16;;;34.19;24.17
63622;BME280;49770;47.544;19.074;2022-07-29T14:13:44;100035.31;;;34.38;23.86
63622;BME280;49770;47.544;19.074;2022-07-29T14:16:46;100038.22;;;34.19;23.80
63622;BME280;49770;47.544;19.074;2022-07-29T14:19:59;100035.03;;;34.10;23.84
63622;BME280;49770;47.544;19.074;2022-07-29T14:23:02;100029.50;;;33.74;24.75
63622;BME280;49770;47.544;19.074;2022-07-29T14:26:06;100031.19;;;33.76;24.55
63622;BME280;49770;47.544;19.074;2022-07-29T14:29:14;100029.16;;;33.71;23.95
63622;BME280;49770;47.544;19.074;2022-07-29T14:32:17;100023.41;;;33.84;24.63
63622;BME280;49770;47.544;19.074;2022-07-29T14:35:20;100025.66;;;34.23;24.60
63622;BME280;49770;47.544;19.074;2022-07-29T14:38:22;100016.47;;;34.06;24.03
63622;BME280;49770;47.544;19.074;2022-07-29T14:41:28;100009.06;;;34.47;23.39
63622;BME280;49770;47.544;19.074;2022-07-29T14:44:31;100003.19;;;34.85;23.15
63622;BME280;49770;47.544;19.074;2022-07-29T14:47:34;100002.87;;;34.40;23.67
63622;BME280;49770;47.544;19.074;2022-07-29T14:50:37;100005.19;;;34.31;24.24
63622;BME280;49770;47.544;19.074;2022-07-29T14:53:40;100006.63;;;34.34;24.21
63622;BME280;49770;47.544;19.074;2022-07-29T14:56:42;100001.22;;;34.39;24.07
63622;BME280;49770;47.544;19.074;2022-07-29T14:59:48;99997.78;;;34.20;23.78
63622;BME280;49770;47.544;19.074;2022-07-29T15:02:51;99980.97;;;34.45;23.52
63622;BME280;49770;47.544;19.074;2022-07-29T15:06:04;99974.84;;;34.14;23.69
63622;BME280;49770;47.544;19.074;2022-07-29T15:09:07;99968.16;;;34.10;23.91
63622;BME280;49770;47.544;19.074;2022-07-29T15:12:10;99976.97;;;34.24;23.79
63622;BME280;49770;47.544;19.074;2022-07-29T15:15:13;99983.28;;;34.36;23.71
63622;BME280;49770;47.544;19.074;2022-07-29T15:18:16;99976.75;;;34.13;23.75
63622;BME280;49770;47.544;19.074;2022-07-29T15:21:27;99974.00;;;34.01;23.80
